Time;durP1;ratioP1;P1;durP2;ratioP2;P2;SDS_P1;SDS_P2;PMS_P1;PMS_P2;Temp;Humidity;BMP_temperature;BMP_pressure;BME280_temperature;BME280_humidity;BME280_pressure;Samples;Min_cycle;Max_cycle;Signal;HPM_P1;HPM_P2
2023/07/21 00:00:26;;;;;;;4.10;2.77;;;;;;;17.78;100.00;98932.09;5074780;28;20184;-76
2023/07/21 00:02:52;;;;;;;4.27;2.63;;;;;;;17.77;100.00;98939.44;5075422;28;20218;-76
2023/07/21 00:05:22;;;;;;;5.63;3.00;;;;;;;17.71;100.00;98940.56;5082308;28;20309;-77
2023/07/21 00:07:50;;;;;;;4.23;2.57;;;;;;;17.71;100.00;98939.75;5111596;28;20193;-77
2023/07/21 00:10:17;;;;;;;3.80;2.77;;;;;;;17.71;100.00;98943.28;5114711;28;20198;-82
2023/07/21 00:12:48;;;;;;;4.63;2.87;;;;;;;17.64;100.00;98942.00;5088294;28;20609;-76
2023/07/21 00:15:17;;;;;;;6.60;2.70;;;;;;;17.69;100.00;98942.75;5099067;28;20570;-76
2023/07/21 00:17:47;;;;;;;2.73;2.43;;;;;;;17.73;100.00;98941.06;5111545;28;20199;-76
2023/07/21 00:20:24;;;;;;;5.17;3.00;;;;;;;17.77;100.00;98942.16;5090371;28;20211;-76
2023/07/21 00:22:51;;;;;;;3.60;2.70;;;;;;;17.82;100.00;98952.97;5102639;28;20213;-74
2023/07/21 00:25:18;;;;;;;5.77;2.90;;;;;;;17.88;100.00;98945.56;5109932;28;20191;-79
2023/07/21 00:27:45;;;;;;;2.93;2.60;;;;;;;17.94;100.00;98945.25;5107074;28;20221;-76
2023/07/21 00:30:12;;;;;;;3.40;2.70;;;;;;;17.99;100.00;98944.41;5090607;28;20194;-76
2023/07/21 00:32:41;;;;;;;2.80;2.50;;;;;;;18.03;100.00;98953.59;5114005;28;20242;-77
2023/07/21 00:35:09;;;;;;;4.20;2.90;;;;;;;18.08;100.00;98952.72;5073088;28;20205;-78
2023/07/21 00:37:37;;;;;;;4.67;2.90;;;;;;;18.11;100.00;98942.13;5094945;28;20201;-78
2023/07/21 00:40:09;;;;;;;5.13;2.90;;;;;;;18.13;100.00;98937.25;5107769;28;20201;-79
2023/07/21 00:42:36;;;;;;;3.80;2.70;;;;;;;18.15;100.00;98945.09;5102036;28;20189;-78
2023/07/21 00:45:03;;;;;;;4.77;2.70;;;;;;;18.18;100.00;98948.03;5087493;28;20196;-78
2023/07/21 00:47:33;;;;;;;2.83;2.53;;;;;;;18.08;100.00;98948.13;5107425;28;20189;-76
2023/07/21 00:50:00;;;;;;;3.20;2.90;;;;;;;18.02;100.00;98947.34;5107788;28;20187;-77
2023/07/21 00:52:27;;;;;;;3.47;2.83;;;;;;;18.04;100.00;98953.31;5076237;28;20675;-75
2023/07/21 00:54:54;;;;;;;3.63;2.90;;;;;;;18.13;100.00;98949.97;5092009;28;20251;-77
2023/07/21 00:57:21;;;;;;;3.77;3.00;;;;;;;18.06;100.00;98944.09;5104052;28;20218;-77
2023/07/21 00:59:48;;;;;;;3.40;2.90;;;;;;;18.02;100.00;98943.84;5095055;28;20704;-75
2023/07/21 01:02:16;;;;;;;4.63;2.70;;;;;;;17.99;100.00;98941.69;5089912;28;20230;-74
2023/07/21 01:04:44;;;;;;;2.97;2.47;;;;;;;18.00;100.00;98935.19;5084972;28;20667;-78
2023/07/21 01:07:11;;;;;;;3.17;2.70;;;;;;;17.97;100.00;98933.03;5109935;28;20231;-75
2023/07/21 01:09:38;;;;;;;4.53;2.80;;;;;;;17.97;100.00;98923.00;5091705;28;20740;-77
2023/07/21 01:12:06;;;;;;;5.37;3.10;;;;;;;17.98;100.00;98926.53;5097023;28;20219;-75
2023/07/21 01:14:34;;;;;;;5.60;2.93;;;;;;;18.00;100.00;98917.03;5113613;28;20573;-75
2023/07/21 01:17:02;;;;;;;3.30;2.90;;;;;;;17.97;100.00;98906.75;5070610;28;20578;-75
2023/07/21 01:19:32;;;;;;;4.50;2.77;;;;;;;17.97;100.00;98920.28;5074041;28;20192;-79
2023/07/21 01:22:18;;;;;;;3.50;2.83;;;;;;;17.90;100.00;98916.31;5113362;28;20576;-79
2023/07/21 01:24:54;;;;;;;4.10;2.73;;;;;;;18.03;100.00;98916.44;5105043;28;20279;-76
2023/07/21 01:27:23;;;;;;;3.67;2.67;;;;;;;18.04;100.00;98912.66;5090276;28;20232;-76
2023/07/21 01:29:51;;;;;;;4.20;2.83;;;;;;;18.12;100.00;98918.53;5090930;28;20666;-76
2023/07/21 01:32:21;;;;;;;4.77;2.80;;;;;;;18.19;100.00;98916.31;5101814;28;20310;-79
2023/07/21 01:34:49;;;;;;;4.63;2.90;;;;;;;18.20;100.00;98910.59;5101792;28;20186;-78
2023/07/21 01:37:17;;;;;;;3.10;2.80;;;;;;;18.24;100.00;98908.13;5069817;28;20205;-75
2023/07/21 01:39:44;;;;;;;3.63;2.80;;;;;;;18.28;100.00;98911.88;5079275;28;20191;-77
2023/07/21 01:42:11;;;;;;;4.83;2.50;;;;;;;18.25;100.00;98907.00;5113342;28;20673;-76
2023/07/21 01:44:39;;;;;;;3.50;2.80;;;;;;;18.23;100.00;98922.78;5108707;28;20634;-77
2023/07/21 01:47:06;;;;;;;4.60;2.57;;;;;;;18.18;100.00;98912.78;5075649;28;20197;-76
2023/07/21 01:49:33;;;;;;;3.53;2.77;;;;;;;18.18;100.00;98914.69;5088576;28;20247;-76
2023/07/21 01:52:00;;;;;;;3.67;3.00;;;;;;;18.22;100.00;98916.53;5099660;28;20222;-76
2023/07/21 01:54:38;;;;;;;4.90;2.93;;;;;;;18.21;100.00;98916.81;5112936;28;20208;-76
2023/07/21 01:57:06;;;;;;;3.60;3.03;;;;;;;18.21;100.00;98914.09;5106315;28;20199;-78
2023/07/21 01:59:33;;;;;;;3.73;2.80;;;;;;;18.20;100.00;98916.00;5079536;28;20210;-77
2023/07/21 02:02:00;;;;;;;3.03;2.70;;;;;;;18.23;100.00;98917.34;5083097;28;20196;-76
2023/07/21 02:04:27;;;;;;;3.83;3.27;;;;;;;18.26;100.00;98922.19;5084762;28;20280;-77
2023/07/21 02:06:54;;;;;;;3.00;2.80;;;;;;;18.30;100.00;98923.22;5112204;28;20633;-76
2023/07/21 02:09:22;;;;;;;3.83;3.00;;;;;;;18.34;100.00;98925.09;5109463;28;20647;-77
2023/07/21 02:11:48;;;;;;;4.20;2.90;;;;;;;18.39;100.00;98929.66;5090517;28;20218;-78
2023/07/21 02:14:29;;;;;;;3.23;2.77;;;;;;;18.38;100.00;98926.13;5090308;28;20214;-77
2023/07/21 02:16:56;;;;;;;5.00;2.73;;;;;;;18.44;100.00;98932.31;5079562;28;20216;-78
2023/07/21 02:19:22;;;;;;;3.17;2.67;;;;;;;18.51;100.00;98937.41;5091273;28;20718;-76
2023/07/21 02:21:49;;;;;;;3.00;2.57;;;;;;;18.55;100.00;98935.75;5092333;28;20291;-76
2023/07/21 02:24:16;;;;;;;4.60;2.70;;;;;;;18.58;100.00;98932.47;5102838;28;20979;-78
2023/07/21 02:26:43;;;;;;;4.10;3.00;;;;;;;18.64;100.00;98936.75;5083862;28;20612;-76
2023/07/21 02:29:10;;;;;;;3.20;2.90;;;;;;;18.68;100.00;98938.59;5111019;28;20189;-76
2023/07/21 02:31:37;;;;;;;2.97;2.60;;;;;;;18.69;100.00;98926.63;5077413;28;20572;-77
2023/07/21 02:34:05;;;;;;;4.60;2.70;;;;;;;18.69;100.00;98921.22;5103983;28;20210;-76
2023/07/21 02:36:31;;;;;;;3.27;2.80;;;;;;;18.73;100.00;98924.16;5111552;28;20199;-76
2023/07/21 02:38:58;;;;;;;3.20;2.90;;;;;;;18.74;100.00;98929.31;5103153;28;20678;-76
2023/07/21 02:41:25;;;;;;;3.67;3.00;;;;;;;18.78;100.00;98916.75;5112324;28;20191;-76
2023/07/21 02:43:51;;;;;;;2.97;2.60;;;;;;;18.77;100.00;98912.44;5103811;28;20408;-77
2023/07/21 02:46:18;;;;;;;3.20;2.90;;;;;;;18.75;100.00;98906.50;5101808;28;20266;-78
2023/07/21 02:48:45;;;;;;;2.97;2.70;;;;;;;18.79;100.00;98898.56;5093969;28;20642;-76
2023/07/21 02:51:12;;;;;;;4.03;2.90;;;;;;;18.76;100.00;98904.56;5086258;28;20561;-76
2023/07/21 02:53:44;;;;;;;3.13;2.60;;;;;;;18.74;100.00;98898.63;5084353;28;20196;-76
2023/07/21 02:56:11;;;;;;;3.70;2.80;;;;;;;18.72;100.00;98892.69;5092401;28;20608;-78
2023/07/21 02:58:57;;;;;;;2.90;2.70;;;;;;;18.60;100.00;98890.41;5068605;28;20687;-78
2023/07/21 03:01:24;;;;;;;2.73;2.53;;;;;;;18.55;100.00;98884.22;5084120;28;20199;-76
2023/07/21 03:03:54;;;;;;;4.30;2.70;;;;;;;18.54;100.00;98883.41;5088927;28;20217;-77
2023/07/21 03:06:21;;;;;;;3.40;3.00;;;;;;;18.54;100.00;98880.69;5080127;28;20258;-77
2023/07/21 03:08:52;;;;;;;3.00;2.70;;;;;;;18.51;100.00;98880.44;5089982;28;20208;-77
2023/07/21 03:11:22;;;;;;;5.73;3.00;;;;;;;18.49;100.00;98876.09;5090262;28;20271;-76
2023/07/21 03:14:06;;;;;;;3.20;3.00;;;;;;;18.45;100.00;98877.78;5085095;28;20205;-77
2023/07/21 03:16:33;;;;;;;2.87;2.67;;;;;;;18.41;100.00;98875.94;5087254;28;20186;-77
2023/07/21 03:19:00;;;;;;;3.27;2.83;;;;;;;18.40;100.00;98875.13;5083060;28;20225;-76
2023/07/21 03:21:28;;;;;;;3.23;2.73;;;;;;;18.34;100.00;98865.44;5088713;28;20396;-77
2023/07/21 03:23:55;;;;;;;4.10;2.90;;;;;;;18.37;100.00;98864.06;5088648;28;20249;-77
2023/07/21 03:26:27;;;;;;;3.20;2.73;;;;;;;18.25;100.00;98861.72;5090068;28;20222;-76
2023/07/21 03:28:55;;;;;;;4.10;3.17;;;;;;;18.18;100.00;98861.28;5090425;28;20732;-77
2023/07/21 03:31:24;;;;;;;3.47;3.00;;;;;;;18.13;100.00;98861.34;5085618;28;20235;-76
2023/07/21 03:34:00;;;;;;;3.90;2.90;;;;;;;18.14;100.00;98867.56;5092117;28;20370;-77
2023/07/21 03:36:30;;;;;;;3.23;2.80;;;;;;;18.15;100.00;98869.19;5090328;28;20586;-77
2023/07/21 03:38:58;;;;;;;3.13;2.83;;;;;;;18.19;100.00;98884.59;5090103;28;20206;-76
2023/07/21 03:41:24;;;;;;;3.00;2.70;;;;;;;18.21;100.00;98881.56;5090066;28;20198;-76
2023/07/21 03:43:51;;;;;;;3.93;2.90;;;;;;;18.25;100.00;98888.03;5090447;28;20204;-77
2023/07/21 03:46:19;;;;;;;3.50;3.20;;;;;;;18.35;100.00;98877.09;5086103;28;20204;-78
2023/07/21 03:49:04;;;;;;;3.70;2.93;;;;;;;18.36;100.00;98874.09;5087275;28;20765;-76
2023/07/21 03:51:34;;;;;;;4.90;3.50;;;;;;;18.36;100.00;98881.41;5089778;28;20204;-78
2023/07/21 03:54:02;;;;;;;3.67;3.10;;;;;;;18.41;100.00;98889.50;5090576;28;20207;-77
2023/07/21 03:56:29;;;;;;;3.53;3.23;;;;;;;18.42;100.00;98891.13;5087699;28;20199;-77
2023/07/21 03:58:57;;;;;;;3.80;3.10;;;;;;;18.29;100.00;98891.81;5090353;28;20675;-77
2023/07/21 04:01:27;;;;;;;3.67;2.83;;;;;;;18.27;100.00;98897.50;5091188;28;20192;-77
2023/07/21 04:03:54;;;;;;;3.43;3.13;;;;;;;18.28;100.00;98890.19;5089943;28;20242;-76
2023/07/21 04:06:24;;;;;;;4.53;3.30;;;;;;;18.33;100.00;98895.56;5089522;28;20249;-78
2023/07/21 04:08:53;;;;;;;3.43;3.13;;;;;;;18.32;100.00;98886.63;5091150;28;20204;-81
2023/07/21 04:11:21;;;;;;;3.60;3.30;;;;;;;18.41;100.00;98892.22;5090338;28;20203;-76
2023/07/21 04:13:47;;;;;;;5.60;3.13;;;;;;;18.49;100.00;98902.41;5087121;28;20247;-76
2023/07/21 04:16:14;;;;;;;3.37;3.00;;;;;;;18.61;100.00;98907.50;5089726;28;20667;-76
2023/07/21 04:18:41;;;;;;;4.40;3.30;;;;;;;18.73;100.00;98908.69;5092155;28;20556;-77
2023/07/21 04:21:08;;;;;;;3.40;2.80;;;;;;;18.86;100.00;98910.69;5090507;28;20647;-76
2023/07/21 04:23:34;;;;;;;4.37;3.30;;;;;;;18.96;100.00;98917.06;5082104;28;20216;-77
2023/07/21 04:26:03;;;;;;;3.23;2.93;;;;;;;19.02;100.00;98905.06;5092816;28;20211;-75
2023/07/21 04:28:31;;;;;;;3.93;3.63;;;;;;;19.13;100.00;98912.75;5087435;28;20256;-76
2023/07/21 04:30:57;;;;;;;4.37;3.50;;;;;;;19.24;100.00;98903.38;5084927;28;20677;-76
2023/07/21 04:33:26;;;;;;;3.30;3.00;;;;;;;19.38;100.00;98902.66;5087495;28;20280;-76
2023/07/21 04:35:52;;;;;;;3.67;3.30;;;;;;;19.59;100.00;98906.72;5091857;28;20301;-76
2023/07/21 04:38:26;;;;;;;3.40;3.10;;;;;;;19.71;100.00;98904.34;5088342;28;20194;-77
2023/07/21 04:41:00;;;;;;;4.00;3.60;;;;;;;19.71;100.00;98893.47;5090764;28;20202;-76
2023/07/21 04:43:26;;;;;;;5.40;3.03;;;;;;;19.70;100.00;98884.50;5093453;28;20218;-77
2023/07/21 04:45:54;;;;;;;6.47;3.37;;;;;;;19.69;100.00;98888.31;5093324;28;20579;-77
2023/07/21 04:48:36;;;;;;;5.80;3.30;;;;;;;19.76;100.00;98894.19;5093407;28;20206;-76
2023/07/21 04:51:04;;;;;;;5.83;3.30;;;;;;;19.86;100.00;98884.25;5093150;28;20196;-77
2023/07/21 04:53:30;;;;;;;3.73;3.43;;;;;;;19.98;100.00;98879.94;5094355;28;20230;-76
2023/07/21 04:55:58;;;;;;;3.80;3.40;;;;;;;20.04;100.00;98872.50;5092927;28;20203;-76
2023/07/21 04:58:27;;;;;;;5.47;3.53;;;;;;;20.07;100.00;98867.28;5093120;28;20208;-77
2023/07/21 05:00:55;;;;;;;4.17;3.40;;;;;;;20.04;100.00;98870.59;5093760;28;20185;-78
2023/07/21 05:03:22;;;;;;;3.40;3.10;;;;;;;20.07;100.00;98867.28;5090913;28;20188;-77
2023/07/21 05:05:49;;;;;;;4.30;3.53;;;;;;;20.11;100.00;98872.94;5091256;28;20705;-77
2023/07/21 05:08:17;;;;;;;6.17;3.43;;;;;;;20.16;100.00;98876.34;5090621;28;20199;-77
2023/07/21 05:10:43;;;;;;;5.50;3.23;;;;;;;20.15;100.00;98873.94;5092400;28;20661;-77
2023/07/21 05:13:14;;;;;;;4.20;3.43;;;;;;;20.21;100.00;98859.94;5083125;28;20216;-77
2023/07/21 05:15:45;;;;;;;5.73;3.80;;;;;;;20.34;100.00;98882.06;5091106;28;20291;-78
2023/07/21 05:18:24;;;;;;;4.67;3.30;;;;;;;20.45;100.00;98886.19;5070999;28;20692;-77
2023/07/21 05:21:26;;;;;;;5.90;3.50;;;;;;;20.67;100.00;98900.69;5055357;28;20220;-77
2023/07/21 05:23:57;;;;;;;6.30;3.70;;;;;;;20.81;100.00;98900.69;5081480;28;20224;-77
2023/07/21 05:26:24;;;;;;;5.23;3.60;;;;;;;20.83;100.00;98909.38;5092588;28;20199;-77
2023/07/21 05:28:54;;;;;;;6.38;3.58;;;;;;;20.83;100.00;98916.72;5091159;28;20677;-77
2023/07/21 05:31:44;;;;;;;5.10;3.50;;;;;;;20.71;100.00;98924.59;5091381;28;20543;-77
2023/07/21 05:34:24;;;;;;;4.45;3.42;;;;;;;20.67;100.00;98919.75;5085743;28;20206;-78
2023/07/21 05:36:53;;;;;;;5.03;3.13;;;;;;;20.53;100.00;98918.94;5092183;28;20235;-77
2023/07/21 05:39:19;;;;;;;7.43;3.17;;;;;;;20.34;100.00;98917.44;5091910;28;20199;-77
2023/07/21 05:41:46;;;;;;;6.40;3.33;;;;;;;20.30;100.00;98911.75;5090130;28;20291;-77
2023/07/21 05:44:14;;;;;;;7.43;3.53;;;;;;;20.21;100.00;98914.34;5091501;28;20295;-78
2023/07/21 05:46:41;;;;;;;3.87;3.43;;;;;;;20.19;100.00;98922.00;5091566;28;20278;-77
2023/07/21 05:49:09;;;;;;;4.53;2.97;;;;;;;20.18;100.00;98917.66;5093574;28;20245;-77
2023/07/21 05:51:37;;;;;;;5.37;3.03;;;;;;;19.99;100.00;98910.66;5091783;28;20200;-76
2023/07/21 05:54:27;;;;;;;3.83;3.43;;;;;;;20.06;100.00;98908.38;5088935;28;20709;-77
2023/07/21 05:56:54;;;;;;;3.50;3.00;;;;;;;20.03;100.00;98911.69;5087767;28;20216;-77
2023/07/21 05:59:32;;;;;;;5.30;3.13;;;;;;;20.09;100.00;98900.44;5090520;28;20204;-78
2023/07/21 06:02:00;;;;;;;4.37;3.20;;;;;;;20.20;100.00;98895.63;5086997;28;20202;-77
2023/07/21 06:04:31;;;;;;;5.70;3.43;;;;;;;20.35;100.00;98898.06;5074813;28;20206;-77
2023/07/21 06:07:14;;;;;;;6.37;3.30;;;;;;;20.45;100.00;98884.28;5090845;28;20775;-77
2023/07/21 06:09:56;;;;;;;5.17;3.40;;;;;;;20.45;100.00;98867.13;5091485;28;20207;-78
2023/07/21 06:12:30;;;;;;;6.70;3.20;;;;;;;20.45;100.00;98858.97;5089021;28;20661;-77
2023/07/21 06:15:11;;;;;;;8.10;3.20;;;;;;;20.47;100.00;98851.31;5091352;28;20256;-77
2023/07/21 06:18:05;;;;;;;9.77;3.33;;;;;;;20.49;100.00;98849.91;5071197;28;20200;-78
2023/07/21 06:20:33;;;;;;;6.73;3.20;;;;;;;20.51;100.00;98846.88;5090661;28;20188;-77
2023/07/21 06:23:00;;;;;;;5.37;3.50;;;;;;;20.47;100.00;98860.31;5092587;28;20210;-78
2023/07/21 06:25:29;;;;;;;6.78;3.42;;;;;;;20.49;100.00;98868.13;5091300;28;20207;-78
2023/07/21 06:28:01;;;;;;;6.05;3.30;;;;;;;20.42;100.00;98878.63;5074759;28;20696;-77
2023/07/21 06:30:28;;;;;;;5.40;3.50;;;;;;;20.37;100.00;98865.94;5091585;28;20216;-77
2023/07/21 06:32:54;;;;;;;10.77;3.22;;;;;;;20.25;100.00;98881.91;5091395;28;20218;-78
2023/07/21 06:35:52;;;;;;;6.93;3.17;;;;;;;20.06;100.00;98871.09;5071940;28;20729;-78
2023/07/21 06:38:27;;;;;;;5.90;3.27;;;;;;;20.05;100.00;98893.16;5090715;28;20241;-78
2023/07/21 06:41:04;;;;;;;6.93;3.00;;;;;;;20.10;100.00;98904.75;5087169;28;20215;-77
2023/07/21 06:44:07;;;;;;;6.60;3.70;;;;;;;19.99;100.00;98903.31;5090896;28;20202;-77
2023/07/21 06:46:51;;;;;;;6.80;3.40;;;;;;;19.98;100.00;98904.41;5093650;28;20553;-77
2023/07/21 06:49:38;;;;;;;3.87;3.30;;;;;;;19.95;100.00;98899.59;5089925;28;20209;-77
2023/07/21 06:52:14;;;;;;;6.47;3.70;;;;;;;19.98;100.00;98888.09;5088322;28;20210;-77
2023/07/21 06:54:41;;;;;;;7.77;3.60;;;;;;;19.85;100.00;98878.00;5090673;28;20244;-78
2023/07/21 06:57:10;;;;;;;9.87;4.30;;;;;;;20.09;100.00;98884.09;5098227;28;20565;-77
2023/07/21 06:59:37;;;;;;;9.50;3.87;;;;;;;20.13;100.00;98887.03;5091029;28;20183;-77
2023/07/21 07:02:04;;;;;;;8.50;4.00;;;;;;;20.27;100.00;98876.16;5090738;28;20187;-77
2023/07/21 07:04:56;;;;;;;6.20;3.83;;;;;;;20.50;100.00;98880.66;5093861;28;20194;-77
2023/07/21 07:07:23;;;;;;;7.27;4.03;;;;;;;20.66;100.00;98876.53;5088294;28;20659;-77
2023/07/21 07:09:50;;;;;;;7.77;3.73;;;;;;;20.94;100.00;98877.28;5091288;28;20195;-77
2023/07/21 07:12:20;;;;;;;7.60;4.03;;;;;;;21.13;100.00;98875.28;5088471;28;20216;-77
2023/07/21 07:14:47;;;;;;;11.13;4.20;;;;;;;21.31;100.00;98868.84;5093031;28;20252;-78
2023/07/21 07:17:13;;;;;;;7.38;3.88;;;;;;;21.36;100.00;98860.56;5088460;28;20195;-78
2023/07/21 07:19:40;;;;;;;6.95;4.40;;;;;;;21.38;100.00;98865.69;5090504;28;20184;-78
2023/07/21 07:22:09;;;;;;;9.07;4.38;;;;;;;21.53;100.00;98862.59;5093302;28;20663;-77
2023/07/21 07:24:37;;;;;;;7.03;4.40;;;;;;;21.50;100.00;98858.59;5084218;28;20230;-78
2023/07/21 07:27:04;;;;;;;7.70;5.03;;;;;;;21.62;100.00;98862.66;5088228;28;20210;-77
2023/07/21 07:29:31;;;;;;;8.68;4.20;;;;;;;22.02;100.00;98871.78;5090598;28;20192;-78
2023/07/21 07:31:58;;;;;;;6.10;4.03;;;;;;;22.28;100.00;98880.88;5091498;28;20197;-77
2023/07/21 07:34:25;;;;;;;10.35;4.00;;;;;;;22.37;100.00;98893.44;5088697;28;20259;-77
2023/07/21 07:36:51;;;;;;;6.50;4.00;;;;;;;22.55;100.00;98883.41;5090464;28;20188;-78
2023/07/21 07:39:18;;;;;;;7.50;4.00;;;;;;;22.67;100.00;98889.09;5089057;28;20180;-77
2023/07/21 07:41:45;;;;;;;7.20;4.00;;;;;;;22.67;100.00;98880.91;5090386;28;20185;-77
2023/07/21 07:44:12;;;;;;;4.22;3.75;;;;;;;22.86;100.00;98886.13;5091469;28;20696;-77
2023/07/21 07:46:38;;;;;;;5.10;4.18;;;;;;;22.95;100.00;98889.66;5085376;28;20190;-77
2023/07/21 07:49:05;;;;;;;5.53;3.70;;;;;;;22.97;100.00;98898.34;5088271;28;20223;-78
2023/07/21 07:51:32;;;;;;;5.65;4.00;;;;;;;23.10;100.00;98894.66;5092466;28;20675;-77
2023/07/21 07:54:01;;;;;;;4.57;3.83;;;;;;;23.19;100.00;98890.00;5087573;28;20220;-78
2023/07/21 07:56:27;;;;;;;5.30;4.00;;;;;;;23.20;100.00;98888.06;5091836;28;20184;-77
2023/07/21 07:58:55;;;;;;;7.85;4.05;;;;;;;23.02;100.00;98894.66;5094417;28;20256;-79
2023/07/21 08:01:21;;;;;;;6.65;3.60;;;;;;;23.10;100.00;98894.66;5095163;28;20184;-77
2023/07/21 08:03:49;;;;;;;5.70;3.83;;;;;;;23.26;100.00;98892.28;5089390;28;20757;-77
2023/07/21 08:06:16;;;;;;;5.72;3.78;;;;;;;23.44;100.00;98884.88;5082432;28;20691;-78
2023/07/21 08:08:42;;;;;;;7.38;3.40;;;;;;;23.58;100.00;98880.88;5065038;28;20197;-78
2023/07/21 08:11:09;;;;;;;5.45;4.00;;;;;;;23.73;100.00;98885.06;5070823;28;20193;-77
2023/07/21 08:13:38;;;;;;;6.55;4.10;;;;;;;23.77;100.00;98885.22;5073530;28;20218;-77
2023/07/21 08:16:09;;;;;;;6.40;3.95;;;;;;;23.88;100.00;98886.50;5074005;28;20649;-76
2023/07/21 08:18:36;;;;;;;4.95;3.65;;;;;;;23.79;100.00;98886.50;5069028;28;20630;-76
2023/07/21 08:21:19;;;;;;;6.45;3.65;;;;;;;23.74;100.00;98874.94;5068947;28;20204;-76
2023/07/21 08:23:46;;;;;;;5.03;3.58;;;;;;;23.58;100.00;98869.94;5049729;28;20872;-77
2023/07/21 08:26:13;;;;;;;10.18;4.13;;;;;;;23.34;100.00;98888.72;5068922;28;20228;-76
2023/07/21 08:28:40;;;;;;;4.07;3.20;;;;;;;23.09;100.00;98895.81;5067646;28;20553;-76
2023/07/21 08:31:08;;;;;;;6.00;3.55;;;;;;;22.82;100.00;98894.13;5072537;28;20185;-76
2023/07/21 08:33:36;;;;;;;8.55;3.90;;;;;;;22.44;100.00;98894.94;5051637;28;20582;-76
2023/07/21 08:36:03;;;;;;;10.32;4.18;;;;;;;22.34;100.00;98890.56;5074106;28;20193;-77
2023/07/21 08:38:30;;;;;;;6.85;3.78;;;;;;;22.12;100.00;98880.47;5074837;28;20189;-76
2023/07/21 08:41:07;;;;;;;10.00;4.00;;;;;;;22.08;100.00;98879.50;5073940;28;20196;-77
2023/07/21 08:43:35;;;;;;;10.73;4.22;;;;;;;22.18;100.00;98883.88;5049086;28;20202;-77
2023/07/21 08:46:03;;;;;;;8.20;3.90;;;;;;;22.31;100.00;98885.72;5057875;28;20216;-76
2023/07/21 08:48:30;;;;;;;5.13;3.90;;;;;;;22.47;100.00;98884.19;5070029;28;20626;-77
2023/07/21 08:50:57;;;;;;;5.93;4.15;;;;;;;22.81;100.00;98878.88;5066998;28;20245;-77
2023/07/21 08:53:24;;;;;;;9.20;4.32;;;;;;;23.29;100.00;98883.41;5073846;28;20730;-77
2023/07/21 08:56:00;;;;;;;7.65;4.35;;;;;;;23.65;100.00;98883.94;5073020;28;20280;-76
2023/07/21 08:58:28;;;;;;;10.43;4.82;;;;;;;23.92;100.00;98876.50;5072360;28;20656;-77
2023/07/21 09:00:55;;;;;;;5.88;4.45;;;;;;;24.10;100.00;98861.63;5045545;28;20429;-77
2023/07/21 09:03:24;;;;;;;6.55;4.60;;;;;;;24.24;100.00;98856.78;5073372;28;20236;-78
2023/07/21 09:05:54;;;;;;;5.47;4.50;;;;;;;24.20;100.00;98850.38;5085139;28;20250;-78
2023/07/21 09:08:25;;;;;;;5.07;4.38;;;;;;;24.00;100.00;98846.38;5072050;28;20308;-77
2023/07/21 09:10:51;;;;;;;4.95;4.40;;;;;;;23.98;100.00;98842.38;5095421;28;20224;-77
2023/07/21 09:13:19;;;;;;;6.13;4.28;;;;;;;24.12;100.00;98843.75;5108020;28;20222;-77
2023/07/21 09:15:50;;;;;;;4.78;4.15;;;;;;;24.36;100.00;98851.41;5106400;28;20679;-78
2023/07/21 09:18:17;;;;;;;4.50;4.05;;;;;;;24.71;100.00;98849.31;5111391;28;20278;-77
2023/07/21 09:20:46;;;;;;;8.40;4.38;;;;;;;25.18;100.00;98843.72;5097804;28;20233;-77
2023/07/21 09:23:13;;;;;;;5.50;4.20;;;;;;;25.49;100.00;98843.28;5087512;28;20246;-76
2023/07/21 09:25:54;;;;;;;5.00;3.97;;;;;;;26.10;100.00;98839.63;5095157;28;20190;-78
2023/07/21 09:28:37;;;;;;;8.80;4.68;;;;;;;26.27;100.00;98846.88;5099003;28;20656;-76
2023/07/21 09:31:04;;;;;;;5.05;4.15;;;;;;;26.68;100.00;98837.63;5095219;28;20203;-78
2023/07/21 09:33:32;;;;;;;4.88;4.20;;;;;;;26.82;100.00;98832.56;5097939;28;20239;-77
2023/07/21 09:36:06;;;;;;;4.75;3.88;;;;;;;26.59;100.00;98836.94;5109090;28;20264;-77
2023/07/21 09:38:35;;;;;;;4.93;3.90;;;;;;;26.91;100.00;98833.28;5081440;28;20226;-78
2023/07/21 09:41:10;;;;;;;4.10;3.70;;;;;;;27.31;100.00;98844.28;5096843;28;20642;-77
2023/07/21 09:43:38;;;;;;;5.70;3.70;;;;;;;27.72;100.00;98843.09;5097189;28;20755;-75
2023/07/21 09:46:09;;;;;;;4.30;3.20;;;;;;;28.27;100.00;98839.50;5101495;28;20187;-75
2023/07/21 09:48:54;;;;;;;3.25;3.00;;;;;;;28.54;100.00;98842.50;5096355;28;20221;-78
2023/07/21 09:51:21;;;;;;;3.85;3.47;;;;;;;28.59;100.00;98825.69;5100452;28;20594;-78
2023/07/21 09:53:49;;;;;;;4.35;3.33;;;;;;;28.36;100.00;98820.84;5113249;28;20220;-78
2023/07/21 09:56:19;;;;;;;3.10;2.80;;;;;;;28.28;100.00;98823.75;5094703;28;20200;-76
2023/07/21 09:58:50;;;;;;;4.63;3.17;;;;;;;28.26;100.00;98823.31;5100712;28;20185;-79
2023/07/21 10:01:18;;;;;;;3.53;3.22;;;;;;;28.10;100.00;98815.00;5109627;28;20196;-76
2023/07/21 10:03:45;;;;;;;3.60;3.30;;;;;;;28.21;100.00;98821.63;5103815;28;20697;-78
2023/07/21 10:06:14;;;;;;;3.47;3.17;;;;;;;27.89;100.00;98822.72;5104231;28;20231;-75
2023/07/21 10:08:42;;;;;;;3.50;2.72;;;;;;;28.15;100.00;98817.53;5095300;28;20731;-76
2023/07/21 10:11:09;;;;;;;5.07;2.97;;;;;;;28.63;100.00;98819.09;5110608;28;20192;-75
2023/07/21 10:13:47;;;;;;;4.18;3.00;;;;;;;29.42;100.00;98814.19;5089085;28;20207;-78
2023/07/21 10:16:14;;;;;;;2.97;2.67;;;;;;;29.82;100.00;98805.47;5098111;28;20630;-78
2023/07/21 10:19:05;;;;;;;2.58;2.30;;;;;;;29.98;98.46;98794.34;5104186;28;20593;-78
2023/07/21 10:21:52;;;;;;;3.03;2.72;;;;;;;30.78;96.04;98796.84;5101303;28;20191;-77
2023/07/21 10:24:23;;;;;;;3.53;2.53;;;;;;;31.15;93.39;98797.00;5107443;28;20573;-78
2023/07/21 10:26:56;;;;;;;3.65;2.45;;;;;;;31.11;91.51;98778.75;5109137;28;20201;-77
2023/07/21 10:29:23;;;;;;;3.45;2.70;;;;;;;31.36;91.67;98780.63;5076013;28;20233;-76
2023/07/21 10:31:51;;;;;;;3.30;2.60;;;;;;;31.59;89.87;98785.28;5107344;28;20241;-75
2023/07/21 10:34:18;;;;;;;3.78;2.53;;;;;;;31.74;88.48;98790.56;5095408;28;20216;-78
2023/07/21 10:36:50;;;;;;;2.63;2.42;;;;;;;31.00;87.71;98778.56;5084459;28;20225;-76
2023/07/21 10:39:26;;;;;;;3.08;1.98;;;;;;;30.88;87.11;98778.81;5086079;28;20254;-78
2023/07/21 10:41:55;;;;;;;2.50;2.30;;;;;;;30.49;86.45;98778.25;5069573;28;20212;-78
2023/07/21 10:44:22;;;;;;;3.05;1.98;;;;;;;30.06;88.65;98780.28;5071533;28;20197;-77
2023/07/21 10:46:50;;;;;;;2.78;2.55;;;;;;;30.34;87.84;98779.97;5093136;28;20203;-78
2023/07/21 10:49:18;;;;;;;2.33;2.13;;;;;;;30.51;87.19;98778.69;5090524;28;20196;-78
2023/07/21 10:51:48;;;;;;;2.40;2.13;;;;;;;30.19;86.07;98776.16;5095053;28;20662;-76
2023/07/21 10:54:16;;;;;;;2.50;2.30;;;;;;;29.92;85.90;98782.00;5090140;28;20231;-79
2023/07/21 10:56:48;;;;;;;1.98;1.80;;;;;;;29.93;83.47;98783.63;5094830;28;20658;-76
2023/07/21 10:59:17;;;;;;;2.25;2.05;;;;;;;29.91;82.43;98783.19;5089949;28;20287;-76
2023/07/21 11:01:50;;;;;;;3.03;1.90;;;;;;;29.92;84.16;98774.53;5096904;28;20386;-76
2023/07/21 11:04:19;;;;;;;2.10;1.90;;;;;;;29.88;84.69;98781.97;5095952;28;20192;-76
2023/07/21 11:06:47;;;;;;;2.60;1.98;;;;;;;30.22;84.50;98787.66;5076113;28;20707;-76
2023/07/21 11:09:14;;;;;;;1.80;1.70;;;;;;;30.21;84.28;98792.38;5071441;28;20204;-78
2023/07/21 11:11:41;;;;;;;2.63;1.83;;;;;;;29.84;83.66;98786.59;5071584;28;20254;-78
2023/07/21 11:14:16;;;;;;;2.40;2.20;;;;;;;29.58;85.12;98783.75;5069040;28;20683;-76
2023/07/21 11:17:03;;;;;;;2.25;2.03;;;;;;;29.28;86.81;98792.59;5071979;28;20219;-78
2023/07/21 11:19:32;;;;;;;1.98;1.88;;;;;;;29.11;87.43;98765.47;5055453;28;20212;-76
2023/07/21 11:21:58;;;;;;;2.08;1.95;;;;;;;29.08;89.01;98771.69;5067787;28;20196;-76
2023/07/21 11:24:28;;;;;;;2.00;1.80;;;;;;;29.66;88.62;98752.34;5071339;28;20213;-76
2023/07/21 11:27:02;;;;;;;2.30;2.10;;;;;;;29.90;88.10;98735.47;5065202;28;20599;-78
2023/07/21 11:29:34;;;;;;;2.63;2.00;;;;;;;29.55;88.24;98726.50;5070566;28;20589;-77
2023/07/21 11:32:03;;;;;;;2.10;1.90;;;;;;;29.18;88.93;98731.69;5065773;28;20209;-76
2023/07/21 11:34:30;;;;;;;3.22;2.03;;;;;;;29.08;91.25;98738.59;5054745;28;20300;-75
2023/07/21 11:36:58;;;;;;;3.05;2.38;;;;;;;29.21;92.78;98737.25;5065604;28;20189;-77
2023/07/21 11:39:29;;;;;;;2.67;2.00;;;;;;;29.39;92.36;98739.63;5051672;28;20204;-80